KBWI/BWI METAR and TAF weather

Enter ICAO airport designator
Station Type Date Time Source
KBWI METAR 2022/06/30 12:54 UTC NOAA

KBWI 301254Z 00000KT 10SM FEW250 27/18 A3023 RMK AO2 SLP234 T02720183


Station Type Date Time Source
KBWI Decoded METAR 2022/06/30 12:54 UTC NOAA

BALTIMORE-WASHINGTON INTERNATIONAL , MD, United States (KBWI) 39-10N 076-41W 59M
Jun 30, 2022 - 08:54 AM EDT / 2022.06.30 1254 UTC
Wind: Calm:0
Visibility: 10 mile(s):0
Sky conditions: mostly clear
Temperature: 81.0 F (27.2 C)
Dew Point: 64.9 F (18.3 C)
Relative Humidity: 58%
Pressure (altimeter): 30.23 in. Hg (1023 hPa)
ob: KBWI 301254Z 00000KT 10SM FEW250 27/18 A3023 RMK AO2 SLP234 T02720183
cycle: 13

Station Type Date Time Source
KBWI TAF 2022/06/30 12:39 UTC NOAA

TAF KBWI 301137Z 3012/0118 VRB03KT P6SM FEW050
FM301800 16004KT P6SM FEW250
FM011300 21007KT P6SM FEW250

Example: see airport list